createdAt,value
2019-06-20T00:02:07.643Z,11.90
2019-06-20T00:04:35.038Z,11.15
2019-06-20T00:07:02.387Z,11.57
2019-06-20T00:09:29.423Z,12.90
2019-06-20T00:11:56.486Z,12.43
2019-06-20T00:14:23.515Z,10.32
2019-06-20T00:16:50.826Z,13.13
2019-06-20T00:19:17.964Z,10.72
2019-06-20T00:21:45.008Z,10.30
2019-06-20T00:24:12.049Z,10.45
2019-06-20T00:26:39.379Z,10.78
2019-06-20T00:29:06.756Z,10.20
2019-06-20T00:31:33.812Z,12.82
2019-06-20T00:34:00.851Z,12.58
2019-06-20T00:36:27.907Z,10.00
2019-06-20T00:38:55.234Z,8.78
2019-06-20T00:41:22.287Z,12.70
2019-06-20T00:43:49.659Z,11.43
2019-06-20T00:46:16.955Z,9.35
2019-06-20T00:48:44.368Z,10.90
2019-06-20T00:51:11.717Z,8.48
2019-06-20T00:53:38.759Z,9.68
2019-06-20T00:56:06.059Z,9.15
2019-06-20T00:58:33.218Z,7.87
2019-06-20T01:01:00.434Z,10.95
2019-06-20T01:03:28.808Z,8.45
2019-06-20T01:05:56.141Z,9.15
2019-06-20T01:08:23.494Z,10.68
2019-06-20T01:10:50.550Z,9.55
2019-06-20T01:13:32.464Z,13.10
2019-06-20T01:15:46.586Z,8.00
2019-06-20T01:18:13.632Z,6.33
2019-06-20T01:20:40.683Z,7.87
2019-06-20T01:23:08.039Z,6.75
2019-06-20T01:25:35.398Z,7.42
2019-06-20T01:28:02.684Z,8.15
2019-06-20T01:30:31.032Z,8.68
2019-06-20T01:32:58.085Z,7.05
2019-06-20T01:35:25.584Z,7.33
2019-06-20T01:37:52.622Z,7.17
2019-06-20T01:40:19.658Z,6.72
2019-06-20T01:42:47.000Z,6.80
2019-06-20T01:45:14.336Z,11.90
2019-06-20T01:47:41.398Z,8.68
2019-06-20T01:50:08.737Z,8.03
2019-06-20T01:52:35.790Z,7.08
2019-06-20T01:55:02.903Z,6.30
2019-06-20T01:57:29.957Z,6.08
2019-06-20T01:59:57.245Z,5.40
2019-06-20T02:02:24.296Z,6.53
2019-06-20T02:04:51.657Z,7.25
2019-06-20T02:07:19.001Z,4.70
2019-06-20T02:09:46.313Z,4.95
2019-06-20T02:12:13.707Z,5.12
2019-06-20T02:14:40.752Z,5.37
2019-06-20T02:17:07.851Z,4.87
2019-06-20T02:19:35.261Z,4.03
2019-06-20T02:22:02.591Z,3.80
2019-06-20T02:24:29.636Z,5.28
2019-06-20T02:26:56.951Z,4.22
2019-06-20T02:29:23.993Z,6.03
2019-06-20T02:31:51.128Z,5.92
2019-06-20T02:34:19.594Z,4.95
2019-06-20T02:36:46.659Z,7.22
2019-06-20T02:39:13.700Z,4.83
2019-06-20T02:41:41.049Z,4.05
2019-06-20T02:44:28.477Z,5.05
2019-06-20T02:46:37.153Z,5.83
2019-06-20T02:49:04.209Z,4.25
2019-06-20T02:51:31.244Z,3.33
2019-06-20T02:53:58.307Z,2.40
2019-06-20T02:56:25.589Z,2.98
2019-06-20T02:58:52.644Z,3.17
2019-06-20T03:01:19.924Z,4.40
2019-06-20T03:03:47.261Z,3.72
2019-06-20T03:06:14.303Z,5.95
2019-06-20T03:08:42.708Z,5.58
2019-06-20T03:11:09.746Z,5.85
2019-06-20T03:13:37.071Z,3.77
2019-06-20T03:16:04.118Z,3.30
2019-06-20T03:18:31.173Z,4.22
2019-06-20T03:20:58.211Z,8.43
2019-06-20T03:23:25.575Z,3.77
2019-06-20T03:25:52.921Z,5.33
2019-06-20T03:28:20.300Z,2.10
2019-06-20T03:30:47.651Z,1.82
2019-06-20T03:33:14.691Z,3.10
2019-06-20T03:35:42.058Z,2.65
2019-06-20T03:38:09.115Z,2.50
2019-06-20T03:40:36.225Z,1.80
2019-06-20T03:43:03.591Z,4.28
2019-06-20T03:45:30.637Z,3.52
2019-06-20T03:47:57.691Z,2.95
2019-06-20T03:50:25.962Z,2.10
2019-06-20T03:52:53.019Z,4.83
2019-06-20T03:55:20.058Z,3.70
2019-06-20T03:57:47.110Z,2.90
2019-06-20T04:00:14.156Z,1.40
2019-06-20T04:02:41.520Z,1.72
2019-06-20T04:05:08.572Z,2.00
2019-06-20T04:07:35.612Z,2.45
2019-06-20T04:10:02.966Z,2.60
2019-06-20T04:12:31.066Z,2.08
2019-06-20T04:14:58.363Z,2.08
2019-06-20T04:17:25.453Z,2.22
2019-06-20T04:19:52.810Z,2.05
2019-06-20T04:22:19.855Z,2.20
2019-06-20T04:24:46.913Z,3.27
2019-06-20T04:27:13.949Z,3.72
2019-06-20T04:29:41.294Z,6.45
2019-06-20T04:32:08.663Z,5.03
2019-06-20T04:34:35.717Z,3.87
2019-06-20T04:37:02.762Z,3.83
2019-06-20T04:39:29.820Z,2.65
2019-06-20T04:41:57.148Z,4.22
2019-06-20T04:44:24.451Z,4.85
2019-06-20T04:46:51.494Z,2.62
2019-06-20T04:49:19.852Z,3.98
2019-06-20T04:51:47.077Z,5.08
2019-06-20T04:54:14.112Z,5.95
2019-06-20T04:56:41.478Z,5.33
2019-06-20T04:59:08.532Z,7.03
2019-06-20T05:01:35.572Z,9.43
2019-06-20T05:04:02.939Z,9.75
2019-06-20T05:06:29.989Z,7.03
2019-06-20T05:08:57.047Z,10.03
2019-06-20T05:11:25.155Z,10.15
2019-06-20T05:13:52.528Z,7.12
2019-06-20T05:16:19.566Z,6.97
2019-06-20T05:18:46.845Z,6.92
2019-06-20T05:21:13.900Z,5.67
2019-06-20T05:23:43.137Z,6.45
2019-06-20T05:26:10.184Z,7.55
2019-06-20T05:28:37.244Z,10.35
2019-06-20T05:31:04.281Z,6.87
2019-06-20T05:33:31.327Z,7.47
2019-06-20T05:35:58.379Z,10.25
2019-06-20T05:38:25.681Z,5.33
2019-06-20T05:40:52.730Z,12.47
2019-06-20T05:43:20.098Z,5.72
2019-06-20T05:45:48.761Z,4.10
2019-06-20T05:48:16.459Z,4.75
2019-06-20T05:50:43.504Z,5.20
2019-06-20T05:53:10.705Z,6.15
2019-06-20T05:55:38.108Z,5.12
2019-06-20T05:58:05.148Z,4.75
2019-06-20T06:00:32.507Z,4.75
2019-06-20T06:02:59.544Z,4.58
2019-06-20T06:05:26.681Z,3.92
2019-06-20T06:07:53.959Z,8.00
2019-06-20T06:10:21.021Z,4.67
2019-06-20T06:12:48.076Z,5.45
2019-06-20T06:15:15.127Z,6.95
2019-06-20T06:17:42.457Z,8.03
2019-06-20T06:20:09.946Z,4.10
2019-06-20T06:22:40.364Z,3.75
2019-06-20T06:27:41.850Z,4.87
2019-06-20T06:30:09.879Z,5.15
2019-06-20T06:32:40.303Z,4.20
2019-06-20T06:35:05.670Z,4.55
2019-06-20T06:37:33.093Z,4.12
2019-06-20T06:40:00.157Z,4.42
2019-06-20T06:42:27.199Z,4.03
2019-06-20T06:47:39.820Z,6.22
2019-06-20T06:50:06.878Z,4.22
2019-06-20T06:52:34.203Z,4.50
2019-06-20T06:55:01.274Z,2.60
2019-06-20T06:57:28.322Z,3.25
2019-06-20T06:59:55.357Z,3.17
2019-06-20T07:02:22.708Z,2.90
2019-06-20T07:04:49.760Z,3.12
2019-06-20T07:07:16.820Z,5.55
2019-06-20T07:09:44.156Z,2.35
2019-06-20T07:12:11.524Z,4.33
2019-06-20T07:14:42.405Z,2.72
2019-06-20T07:17:07.430Z,4.58
2019-06-20T07:19:34.469Z,3.75
2019-06-20T07:22:01.953Z,2.62
2019-06-20T07:24:28.997Z,2.62
2019-06-20T07:29:39.534Z,3.80
2019-06-20T07:32:06.967Z,6.50
2019-06-20T07:34:34.016Z,2.77
2019-06-20T07:37:01.339Z,3.83
2019-06-20T07:39:28.378Z,2.83
2019-06-20T07:41:55.760Z,5.05
2019-06-20T07:44:23.114Z,3.08
2019-06-20T07:46:50.465Z,3.12
2019-06-20T07:49:17.507Z,2.98
2019-06-20T07:51:44.564Z,3.50
2019-06-20T07:54:11.923Z,2.52
2019-06-20T07:56:38.987Z,6.05
2019-06-20T07:59:06.034Z,2.10
2019-06-20T08:01:33.357Z,2.85
2019-06-20T08:04:07.606Z,2.37
2019-06-20T08:06:34.936Z,3.85
2019-06-20T08:09:02.292Z,2.42
2019-06-20T08:11:31.108Z,3.50
2019-06-20T08:13:58.146Z,3.33
2019-06-20T08:16:25.199Z,2.20
2019-06-20T08:18:52.502Z,3.25
2019-06-20T08:21:19.555Z,2.47
2019-06-20T08:23:46.923Z,3.72
2019-06-20T08:26:13.968Z,3.65
2019-06-20T08:28:41.352Z,1.85
2019-06-20T08:31:08.371Z,4.20
2019-06-20T08:33:35.431Z,3.65
2019-06-20T08:36:02.778Z,4.42
2019-06-20T08:38:31.175Z,3.92
2019-06-20T08:40:58.553Z,2.10
2019-06-20T08:43:26.051Z,4.47
2019-06-20T08:45:53.086Z,2.45
2019-06-20T08:48:20.384Z,2.00
2019-06-20T08:50:47.418Z,2.37
2019-06-20T08:53:14.775Z,2.62
2019-06-20T08:55:41.822Z,3.72
2019-06-20T08:58:08.875Z,2.65
2019-06-20T09:00:36.235Z,3.72
2019-06-20T09:05:45.822Z,2.87
2019-06-20T09:08:12.871Z,4.33
2019-06-20T09:10:39.927Z,3.12
2019-06-20T09:13:07.261Z,4.53
2019-06-20T09:15:34.593Z,1.92
2019-06-20T09:18:02.891Z,3.70
2019-06-20T09:20:30.480Z,3.83
2019-06-20T09:22:58.828Z,6.62
2019-06-20T09:25:25.998Z,3.95
2019-06-20T09:27:54.413Z,3.60
2019-06-20T09:30:22.715Z,5.37
2019-06-20T09:32:52.252Z,2.85
2019-06-20T09:35:18.963Z,4.17
2019-06-20T09:37:46.017Z,3.02
2019-06-20T09:40:13.064Z,2.65
2019-06-20T09:42:40.434Z,3.70
2019-06-20T09:45:08.722Z,3.62
2019-06-20T09:47:36.047Z,3.47
2019-06-20T09:50:03.426Z,2.12
2019-06-20T09:52:30.489Z,3.65
2019-06-20T09:54:58.326Z,2.87
2019-06-20T09:57:25.413Z,3.75
2019-06-20T10:00:03.188Z,3.85
2019-06-20T10:02:21.915Z,2.70
2019-06-20T10:04:49.501Z,3.27
2019-06-20T10:07:17.954Z,5.58
2019-06-20T10:09:46.672Z,2.22
2019-06-20T10:12:14.425Z,2.92
2019-06-20T10:14:41.787Z,2.15
2019-06-20T10:17:08.817Z,4.12
2019-06-20T10:19:36.186Z,3.17
2019-06-20T10:22:03.224Z,2.90
2019-06-20T10:24:30.574Z,2.80
2019-06-20T10:26:58.590Z,3.80
2019-06-20T10:29:25.998Z,3.35
2019-06-20T10:31:53.367Z,4.22
2019-06-20T10:34:20.502Z,2.98
2019-06-20T10:36:48.163Z,2.90
2019-06-20T10:39:16.402Z,3.98
2019-06-20T10:41:44.855Z,3.27
2019-06-20T10:44:12.497Z,3.05
2019-06-20T10:46:39.544Z,2.55
2019-06-20T10:49:06.605Z,3.67
2019-06-20T10:51:33.931Z,2.55
2019-06-20T10:54:01.308Z,3.47
2019-06-20T10:56:28.644Z,3.60
2019-06-20T10:58:56.001Z,3.17
2019-06-20T11:01:23.045Z,3.33
2019-06-20T11:03:50.400Z,1.90
2019-06-20T11:06:17.438Z,2.10
2019-06-20T11:08:45.137Z,5.62
2019-06-20T11:11:13.537Z,3.45
2019-06-20T11:13:42.124Z,2.33
2019-06-20T11:16:09.538Z,4.60
2019-06-20T11:18:38.310Z,2.85
2019-06-20T11:21:05.492Z,2.70
2019-06-20T11:23:32.545Z,2.72
2019-06-20T11:25:59.585Z,2.60
2019-06-20T11:28:27.973Z,1.92
2019-06-20T11:31:00.141Z,4.03
2019-06-20T11:33:23.784Z,4.87
2019-06-20T11:35:51.138Z,7.78
2019-06-20T11:38:18.489Z,3.65
2019-06-20T11:40:45.854Z,3.50
2019-06-20T11:43:13.201Z,2.92
2019-06-20T11:45:40.926Z,4.45
2019-06-20T11:48:07.928Z,2.85
2019-06-20T11:50:36.300Z,2.15
2019-06-20T11:53:03.484Z,4.83
2019-06-20T11:55:30.779Z,4.92
2019-06-20T11:57:57.822Z,2.95
2019-06-20T12:00:24.875Z,4.40
2019-06-20T12:02:52.275Z,3.70
2019-06-20T12:05:19.323Z,3.80
2019-06-20T12:07:47.908Z,2.30
2019-06-20T12:10:15.137Z,5.35
2019-06-20T12:12:42.665Z,3.35
2019-06-20T12:15:10.048Z,2.08
2019-06-20T12:17:39.330Z,2.40
2019-06-20T12:20:05.842Z,3.17
2019-06-20T12:22:33.137Z,1.60
2019-06-20T12:25:00.192Z,2.95
2019-06-20T12:27:27.540Z,3.45
2019-06-20T12:29:55.803Z,2.55
2019-06-20T12:32:23.091Z,5.30
2019-06-20T12:34:50.390Z,5.08
2019-06-20T12:37:17.506Z,2.67
2019-06-20T12:39:44.586Z,4.15
2019-06-20T12:42:11.631Z,3.55
2019-06-20T12:44:40.113Z,5.25
2019-06-20T12:47:07.162Z,4.72
2019-06-20T12:49:34.223Z,3.75
2019-06-20T12:52:01.278Z,2.47
2019-06-20T12:54:30.269Z,3.00
2019-06-20T12:56:57.493Z,3.65
2019-06-20T12:59:24.815Z,4.30
2019-06-20T13:01:52.114Z,1.70
2019-06-20T13:04:19.171Z,2.47
2019-06-20T13:06:46.969Z,1.80
2019-06-20T13:09:14.115Z,2.95
2019-06-20T13:11:41.174Z,2.35
2019-06-20T13:14:08.454Z,2.75
2019-06-20T13:16:35.796Z,5.83
2019-06-20T13:19:02.831Z,2.00
2019-06-20T13:21:29.879Z,2.85
2019-06-20T13:23:57.171Z,1.80
2019-06-20T13:26:24.219Z,2.42
2019-06-20T13:29:03.273Z,3.37
2019-06-20T13:31:21.260Z,1.42
2019-06-20T13:33:48.952Z,1.52
2019-06-20T13:36:16.070Z,2.58
2019-06-20T13:38:44.458Z,4.30
2019-06-20T13:41:11.898Z,3.02
2019-06-20T13:43:38.938Z,1.70
2019-06-20T13:46:06.290Z,3.12
2019-06-20T13:48:33.330Z,2.08
2019-06-20T13:51:00.648Z,1.50
2019-06-20T13:53:27.754Z,6.05
2019-06-20T13:55:54.818Z,2.10
2019-06-20T13:58:22.155Z,3.47
2019-06-20T14:00:50.870Z,1.62
2019-06-20T14:03:18.117Z,2.27
2019-06-20T14:05:45.534Z,4.78
2019-06-20T14:08:12.887Z,3.90
2019-06-20T14:10:40.296Z,7.35
2019-06-20T14:13:18.620Z,4.70
2019-06-20T14:15:36.058Z,4.30
2019-06-20T14:18:03.111Z,8.53
2019-06-20T14:20:30.489Z,3.90
2019-06-20T14:22:57.859Z,4.50
2019-06-20T14:25:24.914Z,4.37
2019-06-20T14:27:52.243Z,2.85
2019-06-20T14:30:19.285Z,8.93
2019-06-20T14:32:47.234Z,2.90
2019-06-20T14:35:14.286Z,4.50
2019-06-20T14:37:43.439Z,7.03
2019-06-20T14:40:10.556Z,4.42
2019-06-20T14:42:38.911Z,3.65
2019-06-20T14:45:07.643Z,3.42
2019-06-20T14:47:35.741Z,7.00
2019-06-20T14:50:02.772Z,2.22
2019-06-20T14:52:29.831Z,3.55
2019-06-20T14:54:57.137Z,3.75
2019-06-20T14:57:24.506Z,4.42
2019-06-20T14:59:52.643Z,3.05
2019-06-20T15:02:20.132Z,3.37
2019-06-20T15:04:47.868Z,2.17
2019-06-20T15:07:14.923Z,2.33
2019-06-20T15:09:41.960Z,3.58
2019-06-20T15:12:09.048Z,4.15
2019-06-20T15:14:36.066Z,2.60
2019-06-20T15:17:03.455Z,3.20
2019-06-20T15:19:30.506Z,2.12
2019-06-20T15:21:57.598Z,3.90
2019-06-20T15:24:25.698Z,4.62
2019-06-20T15:26:53.965Z,2.75
2019-06-20T15:29:21.276Z,2.22
2019-06-20T15:31:49.035Z,2.45
2019-06-20T15:34:17.693Z,1.70
2019-06-20T15:36:45.045Z,3.22
2019-06-20T15:39:12.087Z,2.77
2019-06-20T15:41:39.552Z,2.92
2019-06-20T15:44:06.599Z,3.35
2019-06-20T15:46:33.878Z,2.42
2019-06-20T15:49:15.334Z,2.83
2019-06-20T15:51:30.019Z,2.90
2019-06-20T15:53:57.357Z,3.27
2019-06-20T15:56:24.579Z,2.83
2019-06-20T15:58:52.601Z,3.45
2019-06-20T16:01:19.643Z,2.60
2019-06-20T16:03:46.713Z,2.85
2019-06-20T16:06:14.018Z,5.00
2019-06-20T16:08:41.154Z,4.25
2019-06-20T16:11:08.203Z,4.17
2019-06-20T16:13:35.270Z,4.92
2019-06-20T16:16:02.354Z,5.05
2019-06-20T16:18:29.414Z,4.22
2019-06-20T16:20:56.465Z,2.87
2019-06-20T16:23:23.767Z,4.67
2019-06-20T16:25:50.809Z,2.52
2019-06-20T16:28:17.866Z,3.77
2019-06-20T16:30:48.286Z,2.90
2019-06-20T16:35:44.226Z,3.40
2019-06-20T16:38:11.286Z,2.77
2019-06-20T16:40:39.066Z,6.75
2019-06-20T16:43:06.124Z,3.87
2019-06-20T16:45:33.462Z,2.92
2019-06-20T16:48:00.752Z,2.10
2019-06-20T16:50:28.867Z,4.12
2019-06-20T16:52:55.905Z,2.85
2019-06-20T16:55:22.977Z,2.17
2019-06-20T16:57:50.317Z,5.20
2019-06-20T17:00:17.391Z,6.70
2019-06-20T17:02:44.747Z,4.47
2019-06-20T17:05:11.797Z,3.85
2019-06-20T17:07:38.837Z,2.83
2019-06-20T17:10:05.912Z,3.92
2019-06-20T17:12:33.199Z,3.20
2019-06-20T17:15:00.255Z,3.25
2019-06-20T17:17:27.374Z,2.92
2019-06-20T17:19:54.427Z,2.83
2019-06-20T17:22:21.487Z,3.17
2019-06-20T17:24:48.533Z,4.08
2019-06-20T17:27:15.926Z,2.20
2019-06-20T17:29:42.972Z,3.70
2019-06-20T17:32:10.015Z,4.37
2019-06-20T17:34:37.379Z,2.00
2019-06-20T17:37:04.486Z,2.25
2019-06-20T17:39:31.896Z,4.28
2019-06-20T17:41:58.958Z,2.87
2019-06-20T17:44:27.526Z,2.47
2019-06-20T17:46:56.032Z,4.17
2019-06-20T17:49:23.327Z,2.80
2019-06-20T17:51:50.431Z,3.80
2019-06-20T17:54:17.788Z,3.62
2019-06-20T17:56:44.870Z,4.33
2019-06-20T17:59:12.048Z,2.40
2019-06-20T18:01:39.342Z,4.30
2019-06-20T18:04:13.662Z,2.40
2019-06-20T18:06:35.473Z,2.42
2019-06-20T18:09:03.135Z,5.05
2019-06-20T18:11:31.820Z,4.53
2019-06-20T18:13:58.883Z,2.70
2019-06-20T18:16:25.945Z,4.45
2019-06-20T18:18:52.989Z,2.45
2019-06-20T18:21:20.399Z,3.27
2019-06-20T18:23:47.754Z,3.47
2019-06-20T18:26:14.813Z,4.28
2019-06-20T18:28:42.637Z,4.17
2019-06-20T18:31:10.026Z,4.33
2019-06-20T18:33:37.092Z,6.28
2019-06-20T18:36:04.179Z,5.95
2019-06-20T18:38:31.583Z,2.75
2019-06-20T18:40:58.647Z,3.08
2019-06-20T18:43:25.983Z,3.33
2019-06-20T18:45:53.053Z,5.87
2019-06-20T18:48:20.106Z,2.37
2019-06-20T18:50:47.211Z,5.22
2019-06-20T18:53:14.514Z,7.03
2019-06-20T18:55:41.834Z,4.35
2019-06-20T18:58:09.188Z,5.08
2019-06-20T19:00:36.265Z,3.12
2019-06-20T19:03:03.314Z,2.90
2019-06-20T19:05:30.409Z,3.02
2019-06-20T19:07:57.859Z,3.10
2019-06-20T19:10:25.251Z,3.47
2019-06-20T19:12:52.672Z,2.25
2019-06-20T19:15:19.956Z,2.22
2019-06-20T19:17:47.312Z,4.10
2019-06-20T19:20:14.686Z,2.62
2019-06-20T19:22:42.024Z,2.67
2019-06-20T19:25:09.099Z,3.22
2019-06-20T19:27:45.492Z,2.92
2019-06-20T19:30:05.072Z,3.47
2019-06-20T19:32:32.463Z,2.95
2019-06-20T19:35:02.534Z,3.05
2019-06-20T19:37:28.591Z,2.72
2019-06-20T19:39:55.632Z,2.67
2019-06-20T19:42:22.929Z,3.17
2019-06-20T19:44:50.273Z,3.17
2019-06-20T19:47:17.357Z,2.52
2019-06-20T19:49:44.662Z,4.10
2019-06-20T19:52:11.987Z,1.90
2019-06-20T19:54:39.021Z,4.15
2019-06-20T19:57:06.318Z,4.15
2019-06-20T19:59:33.469Z,2.65
2019-06-20T20:02:00.502Z,4.20
2019-06-20T20:04:27.899Z,3.87
2019-06-20T20:06:54.955Z,3.47
2019-06-20T20:09:21.996Z,5.15
2019-06-20T20:11:49.389Z,3.20
2019-06-20T20:14:16.462Z,2.67
2019-06-20T20:16:43.521Z,2.58
2019-06-20T20:19:10.878Z,5.05
2019-06-20T20:21:37.931Z,2.83
2019-06-20T20:24:05.277Z,5.53
2019-06-20T20:26:32.656Z,3.42
2019-06-20T20:28:59.991Z,7.53
2019-06-20T20:31:27.055Z,3.02
2019-06-20T20:33:54.092Z,3.12
2019-06-20T20:36:25.302Z,3.25
2019-06-20T20:38:50.434Z,3.30
2019-06-20T20:41:17.487Z,8.38
2019-06-20T20:43:44.528Z,9.70
2019-06-20T20:46:11.568Z,7.53
2019-06-20T20:48:39.039Z,2.87
2019-06-20T20:51:06.084Z,5.67
2019-06-20T20:53:33.155Z,3.80
2019-06-20T20:56:02.443Z,3.80
2019-06-20T20:58:29.590Z,6.55
2019-06-20T21:00:56.938Z,4.75
2019-06-20T21:03:24.028Z,4.90
2019-06-20T21:05:51.942Z,5.72
2019-06-20T21:08:19.314Z,5.17
2019-06-20T21:10:46.353Z,5.55
2019-06-20T21:13:13.731Z,5.92
2019-06-20T21:15:40.756Z,3.27
2019-06-20T21:18:07.813Z,4.75
2019-06-20T21:20:34.858Z,3.90
2019-06-20T21:23:01.910Z,4.58
2019-06-20T21:25:32.031Z,7.83
2019-06-20T21:27:57.714Z,3.35
2019-06-20T21:30:24.754Z,3.55
2019-06-20T21:32:52.080Z,6.12
2019-06-20T21:35:19.145Z,5.05
2019-06-20T21:37:46.274Z,4.50
2019-06-20T21:40:13.595Z,7.75
2019-06-20T21:42:40.648Z,8.23
2019-06-20T21:45:07.943Z,4.85
2019-06-20T21:47:35.001Z,4.87
2019-06-20T21:50:02.174Z,3.10
2019-06-20T21:52:29.867Z,3.77
2019-06-20T21:54:57.156Z,3.42
2019-06-20T21:57:24.211Z,3.98
2019-06-20T21:59:51.252Z,3.83
2019-06-20T22:02:18.303Z,5.87
2019-06-20T22:04:54.700Z,10.90
2019-06-20T22:07:21.887Z,5.17
2019-06-20T22:09:48.944Z,2.42
2019-06-20T22:12:15.978Z,4.30
2019-06-20T22:14:43.326Z,4.60
2019-06-20T22:17:10.375Z,3.92
2019-06-20T22:19:37.676Z,4.40
2019-06-20T22:22:04.719Z,5.95
2019-06-20T22:24:32.149Z,3.20
2019-06-20T22:26:59.505Z,6.10
2019-06-20T22:29:26.552Z,6.80
2019-06-20T22:31:53.587Z,6.50
2019-06-20T22:34:20.650Z,6.30
2019-06-20T22:36:47.989Z,3.80
2019-06-20T22:39:15.039Z,5.92
2019-06-20T22:41:42.086Z,5.45
2019-06-20T22:44:09.439Z,2.77
2019-06-20T22:46:36.488Z,2.42
2019-06-20T22:49:03.859Z,4.25
2019-06-20T22:51:31.145Z,3.50
2019-06-20T22:53:59.282Z,5.00
2019-06-20T22:56:26.334Z,4.40
2019-06-20T22:58:53.469Z,3.65
2019-06-20T23:01:20.822Z,3.75
2019-06-20T23:03:47.920Z,6.00
2019-06-20T23:06:15.234Z,5.60
2019-06-20T23:08:42.288Z,2.98
2019-06-20T23:11:09.743Z,4.20
2019-06-20T23:13:36.796Z,2.60
2019-06-20T23:16:03.845Z,4.50
2019-06-20T23:18:31.189Z,6.33
2019-06-20T23:21:04.524Z,4.22
2019-06-20T23:23:27.627Z,2.87
2019-06-20T23:25:54.665Z,6.12
2019-06-20T23:28:21.722Z,3.25
2019-06-20T23:30:49.187Z,2.58
2019-06-20T23:33:16.539Z,2.58
2019-06-20T23:35:43.916Z,2.85
2019-06-20T23:38:11.027Z,3.98
2019-06-20T23:40:38.093Z,5.30
2019-06-20T23:43:05.152Z,4.70
2019-06-20T23:45:32.196Z,3.67
2019-06-20T23:47:59.503Z,5.70
2019-06-20T23:50:26.555Z,4.12
2019-06-20T23:52:53.849Z,4.78
2019-06-20T23:55:20.906Z,7.83
2019-06-20T23:57:47.945Z,3.75
